createdAt,value
2022-08-21T00:00:42.387Z,22.29
2022-08-21T00:03:13.605Z,22.37
2022-08-21T00:05:47.648Z,22.03
2022-08-21T00:08:15.810Z,21.80
2022-08-21T00:10:45.706Z,21.94
2022-08-21T00:13:18.745Z,21.78
2022-08-21T00:15:47.537Z,21.76
2022-08-21T00:18:16.172Z,21.65
2022-08-21T00:20:47.721Z,21.73
2022-08-21T00:23:16.504Z,21.73
2022-08-21T00:25:46.285Z,21.51
2022-08-21T00:28:15.440Z,21.54
2022-08-21T00:30:45.520Z,21.85
2022-08-21T00:33:15.129Z,21.43
2022-08-21T00:35:45.920Z,21.76
2022-08-21T00:38:14.251Z,21.84
2022-08-21T00:40:47.652Z,22.02
2022-08-21T00:43:19.761Z,21.82
2022-08-21T00:45:47.971Z,21.71
2022-08-21T00:48:16.147Z,21.68
2022-08-21T00:50:55.229Z,21.59
2022-08-21T00:53:25.561Z,21.65
2022-08-21T00:55:54.025Z,21.98
2022-08-21T00:58:26.174Z,21.68
2022-08-21T01:00:54.938Z,21.53
2022-08-21T01:03:26.407Z,21.58
2022-08-21T01:05:56.474Z,21.46
2022-08-21T01:08:25.627Z,21.07
2022-08-21T01:10:56.980Z,21.15
2022-08-21T01:13:26.340Z,21.29
2022-08-21T01:15:58.611Z,21.64
2022-08-21T01:18:26.864Z,21.70
2022-08-21T01:21:08.355Z,21.55
2022-08-21T01:23:38.745Z,21.41
2022-08-21T01:26:08.364Z,21.59
2022-08-21T01:28:44.789Z,21.59
2022-08-21T01:31:26.260Z,21.65
2022-08-21T01:33:56.464Z,21.05
2022-08-21T01:36:27.620Z,20.88
2022-08-21T01:38:55.636Z,20.76
2022-08-21T01:41:23.820Z,21.12
2022-08-21T01:43:52.061Z,21.49
2022-08-21T01:46:20.256Z,20.90
2022-08-21T01:48:48.165Z,21.28
2022-08-21T01:51:16.208Z,21.28
2022-08-21T01:53:45.421Z,21.03
2022-08-21T01:56:17.746Z,21.35
2022-08-21T01:58:48.843Z,21.96
2022-08-21T02:01:17.034Z,22.52
2022-08-21T02:03:44.972Z,22.66
2022-08-21T02:06:18.870Z,22.17
2022-08-21T02:08:49.163Z,21.98
2022-08-21T02:11:17.270Z,22.39
2022-08-21T02:13:45.147Z,22.17
2022-08-21T02:16:17.301Z,22.31
2022-08-21T02:18:48.102Z,22.46
2022-08-21T02:21:16.537Z,22.53
2022-08-21T02:23:44.756Z,22.63
2022-08-21T02:26:14.482Z,22.55
2022-08-21T02:28:43.264Z,22.68
2022-08-21T02:31:11.939Z,22.71
2022-08-21T02:33:39.994Z,22.66
2022-08-21T02:36:09.973Z,22.61
2022-08-21T02:38:42.524Z,22.54
2022-08-21T02:41:16.220Z,22.54
2022-08-21T02:43:44.663Z,22.65
2022-08-21T02:46:16.227Z,22.60
2022-08-21T02:48:44.211Z,22.68
2022-08-21T02:51:15.944Z,22.51
2022-08-21T02:53:44.643Z,22.41
2022-08-21T02:56:18.101Z,22.18
2022-08-21T02:58:51.893Z,22.35
2022-08-21T03:01:21.274Z,22.15
2022-08-21T03:03:51.767Z,22.21
2022-08-21T03:06:22.551Z,22.22
2022-08-21T03:08:51.845Z,22.16
2022-08-21T03:11:21.718Z,22.15
2022-08-21T03:13:49.535Z,22.10
2022-08-21T03:16:17.384Z,22.09
2022-08-21T03:18:45.214Z,22.10
2022-08-21T03:21:14.099Z,22.24
2022-08-21T03:23:42.947Z,22.35
2022-08-21T03:26:12.510Z,22.21
2022-08-21T03:28:41.957Z,22.11
2022-08-21T03:31:09.826Z,22.18
2022-08-21T03:33:37.719Z,22.19
2022-08-21T03:36:09.587Z,22.14
2022-08-21T03:38:39.727Z,22.12
2022-08-21T03:41:08.973Z,22.11
2022-08-21T03:43:37.331Z,22.18
2022-08-21T03:46:08.192Z,22.02
2022-08-21T03:48:39.243Z,22.03
2022-08-21T03:51:08.509Z,22.03
2022-08-21T03:53:37.324Z,21.98
2022-08-21T03:56:07.027Z,22.03
2022-08-21T03:58:35.471Z,21.94
2022-08-21T04:01:07.134Z,21.83
2022-08-21T04:03:38.071Z,21.94
2022-08-21T04:06:07.413Z,21.93
2022-08-21T04:08:35.828Z,21.93
2022-08-21T04:11:04.280Z,21.94
2022-08-21T04:13:32.199Z,21.95
2022-08-21T04:16:00.278Z,21.84
2022-08-21T04:18:29.832Z,21.87
2022-08-21T04:21:01.672Z,21.80
2022-08-21T04:23:30.641Z,21.73
2022-08-21T04:25:59.268Z,21.80
2022-08-21T04:28:30.440Z,21.66
2022-08-21T04:30:59.839Z,21.93
2022-08-21T04:33:30.166Z,21.87
2022-08-21T04:35:57.998Z,21.82
2022-08-21T04:38:25.870Z,21.82
2022-08-21T04:40:54.637Z,21.83
2022-08-21T04:43:24.333Z,21.73
2022-08-21T04:45:54.216Z,21.82
2022-08-21T04:48:25.102Z,21.72
2022-08-21T04:51:01.484Z,21.82
2022-08-21T04:53:39.033Z,21.89
2022-08-21T04:56:13.680Z,21.73
2022-08-21T04:58:43.452Z,21.75
2022-08-21T05:01:19.197Z,21.82
2022-08-21T05:03:51.220Z,21.87
2022-08-21T05:06:22.310Z,21.71
2022-08-21T05:08:57.138Z,21.88
2022-08-21T05:11:31.818Z,21.83
2022-08-21T05:14:00.334Z,21.74
2022-08-21T05:16:37.368Z,21.62
2022-08-21T05:19:06.603Z,21.81
2022-08-21T05:21:39.435Z,21.64
2022-08-21T05:24:07.592Z,21.73
2022-08-21T05:26:45.366Z,21.77
2022-08-21T05:29:16.393Z,21.73
2022-08-21T05:31:44.633Z,21.60
2022-08-21T05:34:12.831Z,21.73
2022-08-21T05:36:46.517Z,21.79
2022-08-21T05:39:14.806Z,21.83
2022-08-21T05:41:42.971Z,21.66
2022-08-21T05:44:11.377Z,21.58
2022-08-21T05:46:39.878Z,21.66
2022-08-21T05:49:07.715Z,21.95
2022-08-21T05:51:36.225Z,22.01
2022-08-21T05:54:05.770Z,21.89
2022-08-21T05:56:34.152Z,21.84
2022-08-21T05:59:01.964Z,22.13
2022-08-21T06:01:31.628Z,22.04
2022-08-21T06:03:59.666Z,21.81
2022-08-21T06:06:29.336Z,21.99
2022-08-21T06:08:57.201Z,21.98
2022-08-21T06:11:29.021Z,22.03
2022-08-21T06:13:57.543Z,22.19
2022-08-21T06:16:25.728Z,21.76
2022-08-21T06:18:53.811Z,21.68
2022-08-21T06:21:21.892Z,22.10
2022-08-21T06:23:49.756Z,22.17
2022-08-21T06:26:18.149Z,22.19
2022-08-21T06:28:47.620Z,22.01
2022-08-21T06:31:19.774Z,22.50
2022-08-21T06:33:48.406Z,22.48
2022-08-21T06:36:17.258Z,22.35
2022-08-21T06:38:50.931Z,22.57
2022-08-21T06:41:23.837Z,22.57
2022-08-21T06:43:54.120Z,22.63
2022-08-21T06:46:22.033Z,22.52
2022-08-21T06:48:50.439Z,22.35
2022-08-21T06:51:18.581Z,22.48
2022-08-21T06:53:46.854Z,22.73
2022-08-21T06:56:14.809Z,21.88
2022-08-21T06:58:42.632Z,22.29
2022-08-21T07:01:11.826Z,22.45
2022-08-21T07:03:42.078Z,22.61
2022-08-21T07:06:12.226Z,22.21
2022-08-21T07:08:40.769Z,22.70
2022-08-21T07:11:16.513Z,22.34
2022-08-21T07:13:44.452Z,22.65
2022-08-21T07:16:14.733Z,22.67
2022-08-21T07:18:42.753Z,22.63
2022-08-21T07:21:11.437Z,22.52
2022-08-21T07:23:43.944Z,23.02
2022-08-21T07:26:12.212Z,22.99
2022-08-21T07:28:40.501Z,22.79
2022-08-21T07:31:08.359Z,22.59
2022-08-21T07:33:38.336Z,23.29
2022-08-21T07:36:06.921Z,23.28
2022-08-21T07:38:34.793Z,23.19
2022-08-21T07:41:03.937Z,23.03
2022-08-21T07:43:31.923Z,21.64
2022-08-21T07:45:59.902Z,22.54
2022-08-21T07:48:27.808Z,22.85
2022-08-21T07:50:57.461Z,23.26
2022-08-21T07:53:25.276Z,23.11
2022-08-21T07:55:53.124Z,22.98
2022-08-21T07:58:20.965Z,22.98
2022-08-21T08:00:49.156Z,23.10
2022-08-21T08:03:20.561Z,22.38
2022-08-21T08:05:59.391Z,23.28
2022-08-21T08:08:28.572Z,23.50
2022-08-21T08:10:59.954Z,22.67
2022-08-21T08:13:28.035Z,21.97
2022-08-21T08:15:55.895Z,22.33
2022-08-21T08:18:24.025Z,21.71
2022-08-21T08:20:51.924Z,22.06
2022-08-21T08:23:21.096Z,21.95
2022-08-21T08:25:49.145Z,22.43
2022-08-21T08:28:17.921Z,23.34
2022-08-21T08:30:47.313Z,22.63
2022-08-21T08:33:16.560Z,22.74
2022-08-21T08:35:48.509Z,22.07
2022-08-21T08:38:20.773Z,21.38
2022-08-21T08:41:02.830Z,21.55
2022-08-21T08:43:33.718Z,22.07
2022-08-21T08:46:08.301Z,22.17
2022-08-21T08:48:53.261Z,21.76
2022-08-21T08:51:29.836Z,22.04
2022-08-21T08:54:04.685Z,21.62
2022-08-21T08:56:36.002Z,21.91
2022-08-21T08:59:15.256Z,22.62
2022-08-21T09:01:44.392Z,21.80
2022-08-21T09:04:14.486Z,22.05
2022-08-21T09:07:14.533Z,22.17
2022-08-21T09:10:05.235Z,21.98
2022-08-21T09:12:50.828Z,21.98
2022-08-21T09:15:33.923Z,22.13
2022-08-21T09:18:19.774Z,22.15
2022-08-21T09:21:04.017Z,21.98
2022-08-21T09:23:44.267Z,22.88
2022-08-21T09:26:17.351Z,22.31
2022-08-21T09:28:53.350Z,22.97
2022-08-21T09:31:27.332Z,22.01
2022-08-21T09:34:00.916Z,22.00
2022-08-21T09:36:42.325Z,22.32
2022-08-21T09:39:14.261Z,22.66
2022-08-21T09:41:42.835Z,23.29
2022-08-21T09:44:12.034Z,22.72
2022-08-21T09:46:40.001Z,22.86
2022-08-21T09:49:13.459Z,23.27
2022-08-21T09:51:55.078Z,22.18
2022-08-21T09:54:31.752Z,22.93
2022-08-21T09:57:20.397Z,22.57
2022-08-21T09:59:49.656Z,23.41
2022-08-21T10:02:28.965Z,24.03
2022-08-21T10:05:02.325Z,22.98
2022-08-21T10:07:33.849Z,23.21
2022-08-21T10:10:06.808Z,23.18
2022-08-21T10:12:51.829Z,22.59
2022-08-21T10:15:33.520Z,22.42
2022-08-21T10:18:14.897Z,23.15
2022-08-21T10:20:53.201Z,22.99
2022-08-21T10:23:42.286Z,22.90
2022-08-21T10:26:33.137Z,23.13
2022-08-21T10:29:14.611Z,23.34
2022-08-21T10:31:54.650Z,22.98
2022-08-21T10:34:41.751Z,23.64
2022-08-21T10:37:28.589Z,23.46
2022-08-21T10:40:17.480Z,23.48
2022-08-21T10:43:15.552Z,23.49
2022-08-21T10:46:04.738Z,23.45
2022-08-21T10:48:41.482Z,23.51
2022-08-21T10:51:28.897Z,23.73
2022-08-21T10:54:07.370Z,23.53
2022-08-21T10:56:42.281Z,23.30
2022-08-21T10:59:33.253Z,23.59
2022-08-21T11:02:15.249Z,24.13
2022-08-21T11:05:04.441Z,24.38
2022-08-21T11:07:38.148Z,24.29
2022-08-21T11:10:14.726Z,24.58
2022-08-21T11:12:51.674Z,24.94
2022-08-21T11:15:33.999Z,24.65
2022-08-21T11:18:21.259Z,24.07
2022-08-21T11:21:05.764Z,24.19
2022-08-21T11:23:46.106Z,23.76
2022-08-21T11:26:25.516Z,23.97
2022-08-21T11:29:03.375Z,24.04
2022-08-21T11:31:49.029Z,23.76
2022-08-21T11:34:37.342Z,23.73
2022-08-21T11:37:18.078Z,24.09
2022-08-21T11:40:04.489Z,24.15
2022-08-21T11:42:47.920Z,23.71
2022-08-21T11:45:28.377Z,24.10
2022-08-21T11:48:14.094Z,23.99
2022-08-21T11:50:45.816Z,24.51
2022-08-21T11:53:22.271Z,24.57
2022-08-21T11:55:58.893Z,24.43
2022-08-21T11:58:38.121Z,24.48
2022-08-21T12:01:11.438Z,24.01
2022-08-21T12:03:44.846Z,24.76
2022-08-21T12:06:24.466Z,23.96
2022-08-21T12:09:04.205Z,24.27
2022-08-21T12:11:32.814Z,24.31
2022-08-21T12:14:15.433Z,24.03
2022-08-21T12:16:47.088Z,24.23
2022-08-21T12:19:31.875Z,23.91
2022-08-21T12:22:11.587Z,24.87
2022-08-21T12:24:44.996Z,25.25
2022-08-21T12:27:28.059Z,24.57
2022-08-21T12:30:02.318Z,24.58
2022-08-21T12:32:43.723Z,24.60
2022-08-21T12:35:23.254Z,24.77
2022-08-21T12:38:03.231Z,25.05
2022-08-21T12:40:42.289Z,24.31
2022-08-21T12:43:20.581Z,24.95
2022-08-21T12:45:53.347Z,24.40
2022-08-21T12:48:28.935Z,24.32
2022-08-21T12:51:01.615Z,24.62
2022-08-21T12:53:36.632Z,24.29
2022-08-21T12:56:11.804Z,24.29
2022-08-21T12:58:46.804Z,25.00
2022-08-21T13:01:24.607Z,24.58
2022-08-21T13:04:04.144Z,24.56
2022-08-21T13:06:41.310Z,24.36
2022-08-21T13:09:14.768Z,24.57
2022-08-21T13:11:47.615Z,24.75
2022-08-21T13:14:27.123Z,25.48
2022-08-21T13:16:57.753Z,25.08
2022-08-21T13:19:30.570Z,24.51
2022-08-21T13:21:58.856Z,24.59
2022-08-21T13:24:42.313Z,24.54
2022-08-21T13:27:27.426Z,24.74
2022-08-21T13:30:11.726Z,24.39
2022-08-21T13:32:45.575Z,24.84
2022-08-21T13:35:20.926Z,25.10
2022-08-21T13:37:52.720Z,24.79
2022-08-21T13:40:27.317Z,24.38
2022-08-21T13:42:58.244Z,23.96
2022-08-21T13:45:31.935Z,24.22
2022-08-21T13:48:06.486Z,24.48
2022-08-21T13:50:39.382Z,24.45
2022-08-21T13:53:21.789Z,24.87
2022-08-21T13:55:50.733Z,25.15
2022-08-21T13:58:29.601Z,24.64
2022-08-21T14:01:01.246Z,24.71
2022-08-21T14:03:38.326Z,24.81
2022-08-21T14:06:16.515Z,25.15
2022-08-21T14:08:51.625Z,25.24
2022-08-21T14:11:20.351Z,24.51
2022-08-21T14:13:58.282Z,24.70
2022-08-21T14:16:29.898Z,25.22
2022-08-21T14:19:19.319Z,24.43
2022-08-21T14:21:47.869Z,24.02
2022-08-21T14:24:30.393Z,24.19
2022-08-21T14:27:06.685Z,24.60
2022-08-21T14:29:40.019Z,24.38
2022-08-21T14:32:21.949Z,24.44
2022-08-21T14:34:54.699Z,24.48
2022-08-21T14:37:23.287Z,24.91
2022-08-21T14:39:51.504Z,24.94
2022-08-21T14:42:19.640Z,25.26
2022-08-21T14:44:49.417Z,25.49
2022-08-21T14:47:17.644Z,25.33
2022-08-21T14:49:45.540Z,25.64
2022-08-21T14:52:13.367Z,25.04
2022-08-21T14:54:41.301Z,24.54
2022-08-21T14:57:13.026Z,24.68
2022-08-21T14:59:41.491Z,25.02
2022-08-21T15:02:11.648Z,24.67
2022-08-21T15:04:39.649Z,24.65
2022-08-21T15:07:07.526Z,24.59
2022-08-21T15:09:35.361Z,24.79
2022-08-21T15:12:06.065Z,24.40
2022-08-21T15:14:40.992Z,24.53
2022-08-21T15:17:13.020Z,24.80
2022-08-21T15:19:41.266Z,24.71
2022-08-21T15:22:18.700Z,24.72
2022-08-21T15:24:48.343Z,24.68
2022-08-21T15:27:20.229Z,24.97
2022-08-21T15:29:48.149Z,24.59
2022-08-21T15:32:25.449Z,24.45
2022-08-21T15:34:55.432Z,25.08
2022-08-21T15:37:25.806Z,25.08
2022-08-21T15:39:55.222Z,25.22
2022-08-21T15:42:24.498Z,24.75
2022-08-21T15:44:54.425Z,24.35
2022-08-21T15:47:30.360Z,24.72
2022-08-21T15:49:58.444Z,24.68
2022-08-21T15:52:26.392Z,24.96
2022-08-21T15:54:54.716Z,25.07
2022-08-21T15:57:25.843Z,24.85
2022-08-21T15:59:58.791Z,24.41
2022-08-21T16:02:32.375Z,24.48
2022-08-21T16:05:01.350Z,25.25
2022-08-21T16:07:29.161Z,25.32
2022-08-21T16:09:57.110Z,25.37
2022-08-21T16:12:28.944Z,25.41
2022-08-21T16:14:56.896Z,25.50
2022-08-21T16:17:32.520Z,24.54
2022-08-21T16:20:02.224Z,24.71
2022-08-21T16:22:42.172Z,24.23
2022-08-21T16:25:14.236Z,24.49
2022-08-21T16:27:46.076Z,25.03
2022-08-21T16:30:16.663Z,25.30
2022-08-21T16:32:47.899Z,24.45
2022-08-21T16:35:20.771Z,24.72
2022-08-21T16:37:52.969Z,25.18
2022-08-21T16:40:23.125Z,24.55
2022-08-21T16:42:51.406Z,25.15
2022-08-21T16:45:22.162Z,25.10
2022-08-21T16:47:51.494Z,24.76
2022-08-21T16:50:25.767Z,24.46
2022-08-21T16:52:54.489Z,24.79
2022-08-21T16:55:22.486Z,24.65
2022-08-21T16:57:50.381Z,24.58
2022-08-21T17:00:18.312Z,25.08
2022-08-21T17:02:53.433Z,25.27
2022-08-21T17:05:21.784Z,25.09
2022-08-21T17:07:49.774Z,24.90
2022-08-21T17:10:19.104Z,25.26
2022-08-21T17:12:55.798Z,25.64
2022-08-21T17:15:28.340Z,25.65
2022-08-21T17:17:57.619Z,25.40
2022-08-21T17:20:26.383Z,24.74
2022-08-21T17:22:55.339Z,25.48
2022-08-21T17:25:23.497Z,25.01
2022-08-21T17:27:52.222Z,25.17
2022-08-21T17:30:21.468Z,25.28
2022-08-21T17:32:53.818Z,25.19
2022-08-21T17:35:23.324Z,25.38
2022-08-21T17:37:53.306Z,25.15
2022-08-21T17:40:22.286Z,25.47
2022-08-21T17:42:50.407Z,25.49
2022-08-21T17:45:21.519Z,25.24
2022-08-21T17:47:49.388Z,25.46
2022-08-21T17:50:23.521Z,25.34
2022-08-21T17:52:52.498Z,25.27
2022-08-21T17:55:22.551Z,25.19
2022-08-21T17:57:53.329Z,25.27
2022-08-21T18:00:24.782Z,25.36
2022-08-21T18:03:02.930Z,25.30
2022-08-21T18:05:33.548Z,25.19
2022-08-21T18:08:01.585Z,25.26
2022-08-21T18:10:30.016Z,25.24
2022-08-21T18:12:58.776Z,25.14
2022-08-21T18:15:27.057Z,25.08
2022-08-21T18:17:55.185Z,24.94
2022-08-21T18:20:24.584Z,24.98
2022-08-21T18:22:53.796Z,24.84
2022-08-21T18:25:21.836Z,24.82
2022-08-21T18:27:51.061Z,24.75
2022-08-21T18:30:25.557Z,24.69
2022-08-21T18:32:56.095Z,24.70
2022-08-21T18:35:24.483Z,24.73
2022-08-21T18:37:53.727Z,24.59
2022-08-21T18:40:22.323Z,24.61
2022-08-21T18:42:55.784Z,24.50
2022-08-21T18:45:27.085Z,24.24
2022-08-21T18:47:58.296Z,24.35
2022-08-21T18:50:29.197Z,24.34
2022-08-21T18:52:58.526Z,24.42
2022-08-21T18:55:27.380Z,24.37
2022-08-21T18:57:57.331Z,24.41
2022-08-21T19:00:30.455Z,24.40
2022-08-21T19:02:59.399Z,24.48
2022-08-21T19:05:28.020Z,24.30
2022-08-21T19:07:58.018Z,24.28
2022-08-21T19:10:29.369Z,24.16
2022-08-21T19:13:00.596Z,24.11
2022-08-21T19:15:29.754Z,24.05
2022-08-21T19:17:59.535Z,23.93
2022-08-21T19:20:34.347Z,23.93
2022-08-21T19:23:07.426Z,23.91
2022-08-21T19:25:36.674Z,23.81
2022-08-21T19:28:11.653Z,23.81
2022-08-21T19:30:45.955Z,24.01
2022-08-21T19:33:35.969Z,24.02
2022-08-21T19:36:06.010Z,23.90
2022-08-21T19:38:35.721Z,23.36
2022-08-21T19:41:08.147Z,23.62
2022-08-21T19:43:43.504Z,23.70
2022-08-21T19:46:12.851Z,23.65
2022-08-21T19:48:40.767Z,23.54
2022-08-21T19:51:14.730Z,23.83
2022-08-21T19:53:44.112Z,23.84
2022-08-21T19:56:23.333Z,23.82
2022-08-21T19:58:52.352Z,23.74
2022-08-21T20:01:24.656Z,23.71
2022-08-21T20:03:55.460Z,23.61
2022-08-21T20:06:26.494Z,23.60
2022-08-21T20:08:56.503Z,23.67
2022-08-21T20:11:35.531Z,23.58
2022-08-21T20:14:03.669Z,23.43
2022-08-21T20:16:32.199Z,23.47
2022-08-21T20:19:03.427Z,23.52
2022-08-21T20:21:43.686Z,23.39
2022-08-21T20:24:15.517Z,23.39
2022-08-21T20:32:22.644Z,23.27
2022-08-21T20:34:51.935Z,23.09
2022-08-21T20:37:22.386Z,23.05
2022-08-21T20:40:11.462Z,22.98
2022-08-21T20:42:40.634Z,22.99
2022-08-21T20:45:10.520Z,22.93
2022-08-21T20:47:40.233Z,22.97
2022-08-21T20:50:14.487Z,22.88
2022-08-21T20:52:43.298Z,22.79
2022-08-21T20:55:18.142Z,22.84
2022-08-21T20:57:57.692Z,22.83
2022-08-21T21:00:33.725Z,22.65
2022-08-21T21:03:10.800Z,22.64
2022-08-21T21:05:49.024Z,22.71
2022-08-21T21:08:25.251Z,22.60
2022-08-21T21:10:59.387Z,22.53
2022-08-21T21:13:34.445Z,22.58
2022-08-21T21:16:12.814Z,22.55
2022-08-21T21:18:46.144Z,22.58
2022-08-21T21:21:25.180Z,22.47
2022-08-21T21:24:03.400Z,22.46
2022-08-21T21:26:39.602Z,22.44
2022-08-21T21:29:22.122Z,22.44
2022-08-21T21:31:52.919Z,22.32
2022-08-21T21:34:22.264Z,22.39
2022-08-21T21:37:03.825Z,22.34
2022-08-21T21:39:44.618Z,22.28
2022-08-21T21:42:30.560Z,22.20
2022-08-21T21:45:20.493Z,22.22
2022-08-21T21:48:21.128Z,22.17
2022-08-21T21:51:00.976Z,22.19
2022-08-21T21:53:51.616Z,22.28
2022-08-21T21:56:32.839Z,22.24
2022-08-21T21:59:25.867Z,22.16
2022-08-21T22:02:07.085Z,22.08
2022-08-21T22:04:51.112Z,21.99
2022-08-21T22:07:32.194Z,21.94
2022-08-21T22:10:19.837Z,21.90
2022-08-21T22:13:11.157Z,21.94
2022-08-21T22:15:41.602Z,22.06
2022-08-21T22:18:16.047Z,21.96
2022-08-21T22:20:53.854Z,21.98
2022-08-21T22:23:28.942Z,21.95
2022-08-21T22:26:05.256Z,21.88
2022-08-21T22:28:42.262Z,21.80
2022-08-21T22:31:22.235Z,21.85
2022-08-21T22:34:14.298Z,21.74
2022-08-21T22:36:55.478Z,21.57
2022-08-21T22:39:37.776Z,21.75
2022-08-21T22:42:13.492Z,21.77
2022-08-21T22:44:53.822Z,21.80
2022-08-21T22:47:27.136Z,21.82
2022-08-21T22:50:02.300Z,21.74
2022-08-21T22:52:36.874Z,21.87
2022-08-21T22:58:20.714Z,21.70
2022-08-21T23:00:55.334Z,21.75
2022-08-21T23:03:34.231Z,21.83
2022-08-21T23:06:22.229Z,21.81
2022-08-21T23:08:52.352Z,21.85
2022-08-21T23:11:25.308Z,21.75
2022-08-21T23:13:56.953Z,21.66
2022-08-21T23:16:47.530Z,21.53
2022-08-21T23:19:37.979Z,21.63
2022-08-21T23:22:29.197Z,21.65
2022-08-21T23:25:16.468Z,21.65
2022-08-21T23:28:04.122Z,21.69
2022-08-21T23:30:43.977Z,21.82
2022-08-21T23:33:47.357Z,21.91
2022-08-21T23:36:47.845Z,21.98
2022-08-21T23:39:32.625Z,21.90
2022-08-21T23:42:12.495Z,21.89
2022-08-21T23:44:54.823Z,21.97
2022-08-21T23:47:38.408Z,21.87
2022-08-21T23:50:14.659Z,21.68
2022-08-21T23:53:08.903Z,21.53
2022-08-21T23:55:55.796Z,21.59
2022-08-21T23:58:40.623Z,21.51
